KBBD/BBD METAR and TAF weather

Enter ICAO airport designator
Station Type Date Time Source
KBBD METAR 2021/09/20 05:55 UTC NOAA

KBBD 200555Z AUTO 17005KT 10SM 25/15 RMK AO2 PWINO TSNO


Station Type Date Time Source
KBBD Decoded METAR 2021/09/20 05:55 UTC NOAA

Brady, Curtis Field Airport, TX, United States (KBBD) 31-10-45N 099-19-26W
Sep 20, 2021 - 01:55 AM EDT / 2021.09.20 0555 UTC
Wind: from the S (170 degrees) at 6 MPH (5 KT):0
Visibility: 10 mile(s):0
Temperature: 77 F (25 C)
Dew Point: 59 F (15 C)
Relative Humidity: 53%
ob: KBBD 200555Z AUTO 17005KT 10SM 25/15 RMK AO2 PWINO TSNO
cycle: 6

Station Type Date Time Source
KBBD TAF 2021/09/20 06:22 UTC NOAA

TAF KBBD 200520Z 2006/2106 15006KT P6SM SKC
FM201500 20011G17KT P6SM SKC
FM210000 19009KT P6SM SKC

Example: see airport list